createdAt,value
2018-10-09T00:00:52.558Z,87.5
2018-10-09T00:05:54.720Z,86.400002
2018-10-09T00:10:56.950Z,86.099998
2018-10-09T00:15:59.278Z,86
2018-10-09T00:21:01.778Z,87.300003
2018-10-09T00:31:06.138Z,90.5
2018-10-09T00:36:08.640Z,91.300003
2018-10-09T00:41:10.739Z,90.5
2018-10-09T00:46:13.066Z,90.800003
2018-10-09T00:51:16.616Z,91.099998
2018-10-09T00:56:17.716Z,91.300003
2018-10-09T01:01:20.021Z,90.900002
2018-10-09T01:06:22.192Z,91.300003
2018-10-09T01:11:24.490Z,91.699997
2018-10-09T01:16:26.839Z,91.5
2018-10-09T01:21:29.149Z,90.099998
2018-10-09T01:26:31.356Z,91.099998
2018-10-09T01:31:33.748Z,93.300003
2018-10-09T01:36:36.022Z,94.599998
2018-10-09T01:41:38.359Z,94.699997
2018-10-09T01:46:40.696Z,95.900002
2018-10-09T01:51:44.345Z,94.900002
2018-10-09T01:56:45.140Z,94.099998
2018-10-09T02:01:47.417Z,95
2018-10-09T02:06:49.822Z,94.5
2018-10-09T02:11:52.115Z,96
2018-10-09T02:16:54.286Z,96.599998
2018-10-09T02:21:56.696Z,95.599998
2018-10-09T02:26:59.075Z,94.900002
2018-10-09T02:32:01.566Z,96.599998
2018-10-09T02:37:03.539Z,96.300003
2018-10-09T02:42:05.743Z,96.599998
2018-10-09T02:47:08.121Z,96.400002
2018-10-09T02:52:10.411Z,97.300003
2018-10-09T02:57:12.710Z,96.800003
2018-10-09T03:02:15.080Z,97
2018-10-09T03:07:17.411Z,99.800003
2018-10-09T03:12:19.564Z,99.900002
2018-10-09T03:17:21.896Z,99.900002
2018-10-09T03:22:24.263Z,99.900002
2018-10-09T03:27:26.401Z,99.900002
2018-10-09T03:32:29.847Z,99.900002
2018-10-09T03:37:31.076Z,99.900002
2018-10-09T03:42:33.323Z,99.900002
2018-10-09T03:47:35.662Z,99.900002
2018-10-09T03:52:37.894Z,99.900002
2018-10-09T03:57:40.184Z,99.900002
2018-10-09T04:02:42.506Z,99.900002
2018-10-09T04:07:44.858Z,99.900002
2018-10-09T04:12:47.069Z,99.800003
2018-10-09T04:17:49.536Z,99.599998
2018-10-09T04:22:51.729Z,98.900002
2018-10-09T04:27:54.044Z,98.900002
2018-10-09T04:32:56.281Z,99.400002
2018-10-09T04:37:59.937Z,99.699997
2018-10-09T04:43:00.847Z,99.800003
2018-10-09T04:48:03.222Z,99.199997
2018-10-09T04:53:05.458Z,98.300003
2018-10-09T04:58:07.745Z,97.599998
2018-10-09T05:03:11.192Z,92
2018-10-09T05:08:13.812Z,94
2018-10-09T05:18:16.911Z,95.199997
2018-10-09T05:23:19.353Z,96.099998
2018-10-09T05:28:21.527Z,95.099998
2018-10-09T05:33:23.903Z,96.300003
2018-10-09T05:38:26.107Z,95.699997
2018-10-09T05:43:28.315Z,95.5
2018-10-09T05:48:30.794Z,95.699997
2018-10-09T05:53:33.054Z,96.900002
2018-10-09T05:58:35.298Z,95.300003
2018-10-09T06:08:39.967Z,98.199997
2018-10-09T06:13:42.271Z,97.5
2018-10-09T06:18:44.482Z,98.099998
2018-10-09T06:23:46.696Z,98.800003
2018-10-09T06:28:49.006Z,99.900002
2018-10-09T06:33:51.294Z,99.900002
2018-10-09T06:38:53.644Z,99.5
2018-10-09T06:43:57.782Z,97.5
2018-10-09T06:48:58.257Z,98.400002
2018-10-09T06:54:00.631Z,93.599998
2018-10-09T06:59:02.839Z,93.199997
2018-10-09T07:04:05.178Z,94.5
2018-10-09T07:09:07.426Z,95.5
2018-10-09T07:14:09.675Z,98.099998
2018-10-09T07:19:11.942Z,98.099998
2018-10-09T07:24:14.359Z,99.300003
2018-10-09T07:29:16.574Z,98.699997
2018-10-09T07:34:18.844Z,98.900002
2018-10-09T07:39:22.343Z,97.800003
2018-10-09T07:44:23.609Z,98.400002
2018-10-09T07:49:25.791Z,98.699997
2018-10-09T07:54:28.140Z,98.800003
2018-10-09T07:59:30.274Z,99.099998
2018-10-09T08:04:32.708Z,99.900002
2018-10-09T08:09:34.931Z,94.400002
2018-10-09T08:14:37.255Z,93.5
2018-10-09T08:19:39.536Z,91.400002
2018-10-09T08:24:41.815Z,86.699997
2018-10-09T08:29:44.099Z,83.099998
2018-10-09T08:34:46.374Z,82.599998
2018-10-09T08:39:48.714Z,82.900002
2018-10-09T08:44:50.979Z,82.300003
2018-10-09T08:49:54.769Z,82.199997
2018-10-09T08:54:55.603Z,81.400002
2018-10-09T08:59:57.903Z,79.5
2018-10-09T09:05:00.176Z,78.099998
2018-10-09T09:10:02.483Z,76.800003
2018-10-09T09:15:04.790Z,78.699997
2018-10-09T09:20:07.203Z,78.199997
2018-10-09T09:25:09.440Z,75.599998
2018-10-09T09:30:11.642Z,74.599998
2018-10-09T09:35:13.930Z,71.800003
2018-10-09T09:40:16.239Z,69.800003
2018-10-09T09:45:18.495Z,66.900002
2018-10-09T09:50:20.837Z,66.800003
2018-10-09T09:55:23.179Z,62.700001
2018-10-09T10:00:27.187Z,60.799999
2018-10-09T10:05:27.647Z,62
2018-10-09T10:10:29.959Z,62.400002
2018-10-09T10:15:32.315Z,59.799999
2018-10-09T10:20:34.569Z,59
2018-10-09T10:25:36.798Z,59.5
2018-10-09T10:30:39.221Z,56
2018-10-09T10:35:41.505Z,50
2018-10-09T10:40:43.703Z,53.900002
2018-10-09T10:45:46.039Z,49.599998
2018-10-09T10:50:48.389Z,51
2018-10-09T10:55:50.551Z,47.400002
2018-10-09T11:00:52.910Z,47.299999
2018-10-09T11:05:55.283Z,47
2018-10-09T11:10:57.591Z,45.5
2018-10-09T11:15:59.885Z,40.400002
2018-10-09T11:21:02.232Z,39.799999
2018-10-09T11:26:04.355Z,38.700001
2018-10-09T11:31:06.679Z,39.799999
2018-10-09T11:36:08.952Z,38.900002
2018-10-09T11:41:12.682Z,35
2018-10-09T11:46:13.556Z,33.299999
2018-10-09T11:51:15.857Z,33.900002
2018-10-09T11:56:18.274Z,33.700001
2018-10-09T12:01:20.605Z,30.1
2018-10-09T12:06:22.683Z,31.4
2018-10-09T12:11:25.060Z,32.5
2018-10-09T12:16:27.383Z,32.599998
2018-10-09T12:21:29.641Z,29.6
2018-10-09T12:26:31.954Z,30.1
2018-10-09T12:31:35.579Z,29.5
2018-10-09T12:36:36.523Z,29.200001
2018-10-09T12:41:38.835Z,29.9
2018-10-09T12:46:41.082Z,30.4
2018-10-09T12:51:43.452Z,28.700001
2018-10-09T12:56:45.703Z,28.5
2018-10-09T13:01:48.136Z,28.200001
2018-10-09T13:06:50.381Z,29.1
2018-10-09T13:11:52.711Z,28.9
2018-10-09T13:16:54.881Z,28.700001
2018-10-09T13:21:57.441Z,29.4
2018-10-09T13:26:59.442Z,29.799999
2018-10-09T13:32:01.757Z,29.5
2018-10-09T13:37:04.035Z,30.4
2018-10-09T13:42:06.359Z,30.6
2018-10-09T13:47:08.784Z,32.700001
2018-10-09T13:52:10.960Z,29.200001
2018-10-09T13:57:13.372Z,29.1
2018-10-09T14:02:15.623Z,28.9
2018-10-09T14:07:17.850Z,29.200001
2018-10-09T14:12:20.070Z,30.299999
2018-10-09T14:17:22.539Z,31
2018-10-09T14:22:24.909Z,33.400002
2018-10-09T14:27:27.041Z,32.099998
2018-10-09T14:32:29.310Z,32.799999
2018-10-09T14:37:31.658Z,33.900002
2018-10-09T14:42:33.840Z,35.200001
2018-10-09T14:47:36.174Z,36.700001
2018-10-09T14:52:39.670Z,36.900002
2018-10-09T14:57:40.853Z,38.299999
2018-10-09T15:02:43.042Z,37.599998
2018-10-09T15:07:45.473Z,37.799999
2018-10-09T15:12:47.707Z,38
2018-10-09T15:17:49.940Z,38.700001
2018-10-09T15:22:52.155Z,39
2018-10-09T15:27:54.552Z,40.799999
2018-10-09T15:32:56.766Z,40.900002
2018-10-09T15:37:59.134Z,43.299999
2018-10-09T15:43:01.442Z,39.799999
2018-10-09T15:48:03.769Z,41.5
2018-10-09T15:53:05.992Z,43
2018-10-09T15:58:08.308Z,43.599998
2018-10-09T16:03:10.527Z,43.900002
2018-10-09T16:08:14.063Z,44
2018-10-09T16:13:15.411Z,45.200001
2018-10-09T16:18:17.418Z,45.200001
2018-10-09T16:23:19.837Z,46.400002
2018-10-09T16:28:22.383Z,46.900002
2018-10-09T16:33:24.368Z,47.900002
2018-10-09T16:38:26.609Z,50.900002
2018-10-09T16:43:28.985Z,52.700001
2018-10-09T16:48:33.073Z,56
2018-10-09T16:53:33.511Z,59.099998
2018-10-09T16:58:35.925Z,59
2018-10-09T17:03:38.142Z,62.200001
2018-10-09T17:08:40.486Z,63.599998
2018-10-09T17:13:42.814Z,65.300003
2018-10-09T17:18:45.768Z,65.900002
2018-10-09T17:23:47.409Z,66.5
2018-10-09T17:28:49.561Z,67.300003
2018-10-09T17:33:51.967Z,68.099998
2018-10-09T17:38:54.184Z,69
2018-10-09T17:43:56.457Z,69.900002
2018-10-09T17:48:58.856Z,70.800003
2018-10-09T17:54:01.115Z,71.099998
2018-10-09T17:59:03.385Z,71.5
2018-10-09T18:04:05.617Z,72.5
2018-10-09T18:09:08.017Z,73.099998
2018-10-09T18:14:10.242Z,72.900002
2018-10-09T18:19:12.540Z,73.300003
2018-10-09T18:24:14.745Z,73.900002
2018-10-09T18:29:17.161Z,75.400002
2018-10-09T18:34:19.470Z,74
2018-10-09T18:39:21.693Z,74.900002
2018-10-09T18:44:24.070Z,75.699997
2018-10-09T18:49:26.251Z,74.400002
2018-10-09T18:54:28.682Z,76
2018-10-09T18:59:30.944Z,76.900002
2018-10-09T19:04:33.198Z,77.300003
2018-10-09T19:09:35.398Z,79.099998
2018-10-09T19:14:37.812Z,78.800003
2018-10-09T19:19:40.050Z,79.699997
2018-10-09T19:24:42.430Z,78.300003
2018-10-09T19:29:44.681Z,79
2018-10-09T19:34:46.931Z,81.400002
2018-10-09T19:39:49.271Z,83.099998
2018-10-09T19:44:51.673Z,81.599998
2018-10-09T19:49:53.751Z,80.400002
2018-10-09T19:54:56.347Z,79.699997
2018-10-09T19:59:58.479Z,78.900002
2018-10-09T20:05:00.773Z,79.5
2018-10-09T20:10:03.013Z,80.300003
2018-10-09T20:15:05.348Z,80.599998
2018-10-09T20:20:07.542Z,80
2018-10-09T20:25:09.884Z,80.699997
2018-10-09T20:30:12.347Z,83.5
2018-10-09T20:35:14.564Z,83.300003
2018-10-09T20:40:16.765Z,82.199997
2018-10-09T20:45:19.035Z,81.599998
2018-10-09T20:50:21.311Z,82.099998
2018-10-09T20:55:23.648Z,82.300003
2018-10-09T21:00:25.989Z,83
2018-10-09T21:05:28.316Z,83.400002
2018-10-09T21:10:30.535Z,84
2018-10-09T21:15:33.890Z,84.400002
2018-10-09T21:20:35.072Z,85
2018-10-09T21:25:37.424Z,84.699997
2018-10-09T21:30:39.705Z,84
2018-10-09T21:35:42.139Z,84.800003
2018-10-09T21:40:44.291Z,85.699997
2018-10-09T21:45:46.565Z,87.699997
2018-10-09T21:50:48.954Z,88
2018-10-09T21:55:51.275Z,88.900002
2018-10-09T22:00:53.559Z,90.599998
2018-10-09T22:05:55.789Z,89.099998
2018-10-09T22:10:58.077Z,88.400002
2018-10-09T22:16:00.447Z,89.599998
2018-10-09T22:21:02.665Z,88.400002
2018-10-09T22:26:04.975Z,87.800003
2018-10-09T22:31:07.278Z,87.599998
2018-10-09T22:36:11.793Z,87.599998
2018-10-09T22:41:11.897Z,85.900002
2018-10-09T22:46:14.056Z,85.599998
2018-10-09T22:51:16.472Z,87
2018-10-09T22:56:18.787Z,88.5
2018-10-09T23:01:21.022Z,89.199997
2018-10-09T23:06:23.203Z,89.199997
2018-10-09T23:11:25.616Z,93.400002
2018-10-09T23:16:27.971Z,94.099998
2018-10-09T23:21:30.130Z,91.900002
2018-10-09T23:26:32.479Z,90.5
2018-10-09T23:31:35.915Z,90.199997
2018-10-09T23:36:37.287Z,90.599998
2018-10-09T23:41:39.358Z,95.699997
2018-10-09T23:46:41.622Z,96.599998
2018-10-09T23:51:44.016Z,95.800003
